createdAt,value
2022-11-03T00:00:06.594Z,40.43
2022-11-03T00:01:08.359Z,32.06
2022-11-03T00:02:10.934Z,29.63
2022-11-03T00:03:13.578Z,41.38
2022-11-03T00:04:15.937Z,30.69
2022-11-03T00:05:18.297Z,34.91
2022-11-03T00:06:20.988Z,34.23
2022-11-03T00:07:23.351Z,27.18
2022-11-03T00:08:25.828Z,32.11
2022-11-03T00:09:28.280Z,30.31
2022-11-03T00:10:30.743Z,29.75
2022-11-03T00:11:33.228Z,23.86
2022-11-03T00:12:35.593Z,27.16
2022-11-03T00:13:37.951Z,26.85
2022-11-03T00:14:40.309Z,33.21
2022-11-03T00:15:42.671Z,37.35
2022-11-03T00:16:45.262Z,34.71
2022-11-03T00:17:47.625Z,34.23
2022-11-03T00:18:49.984Z,30.27
2022-11-03T00:19:52.347Z,29.75
2022-11-03T00:20:55.004Z,29.19
2022-11-03T00:21:57.401Z,35.29
2022-11-03T00:22:59.861Z,26.69
2022-11-03T00:24:02.325Z,26.23
2022-11-03T00:25:04.682Z,32.95
2022-11-03T00:26:08.090Z,23.26
2022-11-03T00:27:10.553Z,27.23
2022-11-03T00:28:13.019Z,30.81
2022-11-03T00:29:15.492Z,28.49
2022-11-03T00:30:18.051Z,20.21
2022-11-03T00:31:20.507Z,23.38
2022-11-03T00:32:22.992Z,24.03
2022-11-03T00:33:25.352Z,28.73
2022-11-03T00:34:27.710Z,23.76
2022-11-03T00:35:30.065Z,30.87
2022-11-03T00:36:32.523Z,24.03
2022-11-03T00:37:34.908Z,21.73
2022-11-03T00:38:37.280Z,24.18
2022-11-03T00:39:39.743Z,21.48
2022-11-03T00:40:42.310Z,42.89
2022-11-03T00:41:44.805Z,24.54
2022-11-03T00:42:47.303Z,24.40
2022-11-03T00:43:49.666Z,25.49
2022-11-03T00:44:52.025Z,28.33
2022-11-03T00:45:54.383Z,19.83
2022-11-03T00:46:56.751Z,19.49
2022-11-03T00:47:59.636Z,22.10
2022-11-03T00:49:02.110Z,26.48
2022-11-03T00:50:04.770Z,31.41
2022-11-03T00:51:07.117Z,25.62
2022-11-03T00:52:09.473Z,23.75
2022-11-03T00:53:11.968Z,19.41
2022-11-03T00:54:14.325Z,27.49
2022-11-03T00:55:16.686Z,24.27
2022-11-03T00:56:19.243Z,18.84
2022-11-03T00:57:21.625Z,21.89
2022-11-03T00:58:24.121Z,21.59
2022-11-03T00:59:26.479Z,19.64
2022-11-03T01:00:29.033Z,19.95
2022-11-03T01:01:31.687Z,18.75
2022-11-03T01:02:34.383Z,19.07
2022-11-03T01:03:37.048Z,24.16
2022-11-03T01:04:39.504Z,22.28
2022-11-03T01:05:41.884Z,21.19
2022-11-03T01:06:44.440Z,18.53
2022-11-03T01:07:46.860Z,22.31
2022-11-03T01:08:49.495Z,17.79
2022-11-03T01:09:51.952Z,23.85
2022-11-03T01:10:54.509Z,23.33
2022-11-03T01:11:56.966Z,15.45
2022-11-03T01:12:59.422Z,17.74
2022-11-03T01:14:01.826Z,19.41
2022-11-03T01:15:04.176Z,16.86
2022-11-03T01:16:06.937Z,19.59
2022-11-03T01:17:09.292Z,16.65
2022-11-03T01:18:11.649Z,15.11
2022-11-03T01:19:14.068Z,18.35
2022-11-03T01:20:17.020Z,16.83
2022-11-03T01:21:19.376Z,40.61
2022-11-03T01:22:21.730Z,17.61
2022-11-03T01:23:24.087Z,19.20
2022-11-03T01:24:26.480Z,19.22
2022-11-03T01:25:28.833Z,17.71
2022-11-03T01:26:31.491Z,15.35
2022-11-03T01:27:33.847Z,17.79
2022-11-03T01:28:36.201Z,18.85
2022-11-03T01:29:38.595Z,25.44
2022-11-03T01:30:41.248Z,22.89
2022-11-03T01:31:43.599Z,42.42
2022-11-03T01:32:45.957Z,37.58
2022-11-03T01:33:48.314Z,45.91
2022-11-03T01:34:50.712Z,38.13
2022-11-03T01:35:53.067Z,36.63
2022-11-03T01:36:55.752Z,24.27
2022-11-03T01:37:58.202Z,41.13
2022-11-03T01:39:00.552Z,36.45
2022-11-03T01:40:03.151Z,39.61
2022-11-03T01:41:05.614Z,36.39
2022-11-03T01:42:07.973Z,28.76
2022-11-03T01:43:10.322Z,26.78
2022-11-03T01:44:12.695Z,25.29
2022-11-03T01:45:15.188Z,27.75
2022-11-03T01:46:17.850Z,18.83
2022-11-03T01:47:20.301Z,18.05
2022-11-03T01:48:22.653Z,24.39
2022-11-03T01:49:25.002Z,20.68
2022-11-03T01:50:27.548Z,23.13
2022-11-03T01:51:29.902Z,16.05
2022-11-03T01:52:32.359Z,17.18
2022-11-03T01:53:34.715Z,15.37
2022-11-03T01:54:37.069Z,17.64
2022-11-03T01:55:39.455Z,20.53
2022-11-03T01:56:42.117Z,20.58
2022-11-03T01:57:44.472Z,13.06
2022-11-03T01:58:46.831Z,15.87
2022-11-03T01:59:49.255Z,14.19
2022-11-03T02:00:51.864Z,22.07
2022-11-03T02:01:54.586Z,15.18
2022-11-03T02:02:57.159Z,14.84
2022-11-03T02:03:59.509Z,15.65
2022-11-03T02:05:01.861Z,12.57
2022-11-03T02:06:04.363Z,11.77
2022-11-03T02:07:06.721Z,19.13
2022-11-03T02:09:11.528Z,17.90
2022-11-03T02:10:14.386Z,19.34
2022-11-03T02:11:16.768Z,14.19
2022-11-03T02:12:19.151Z,14.07
2022-11-03T02:13:21.572Z,14.73
2022-11-03T02:14:23.929Z,14.20
2022-11-03T02:15:26.284Z,15.23
2022-11-03T02:16:28.866Z,16.05
2022-11-03T02:17:31.220Z,16.17
2022-11-03T02:18:33.574Z,14.65
2022-11-03T02:19:35.929Z,11.70
2022-11-03T02:20:38.582Z,13.25
2022-11-03T02:21:41.070Z,23.93
2022-11-03T02:22:43.428Z,22.74
2022-11-03T02:23:45.782Z,36.04
2022-11-03T02:24:51.322Z,38.91
2022-11-03T02:25:52.400Z,41.68
2022-11-03T02:26:54.884Z,46.11
2022-11-03T02:27:57.238Z,52.77
2022-11-03T02:28:59.609Z,51.58
2022-11-03T02:30:02.066Z,49.63
2022-11-03T02:31:04.540Z,55.11
2022-11-03T02:32:07.001Z,46.73
2022-11-03T02:33:09.537Z,54.01
2022-11-03T02:34:12.014Z,47.90
2022-11-03T02:35:14.383Z,55.37
2022-11-03T02:36:18.371Z,49.98
2022-11-03T02:37:20.878Z,46.13
2022-11-03T02:38:23.377Z,53.41
2022-11-03T02:39:26.223Z,44.48
2022-11-03T02:40:28.697Z,51.88
2022-11-03T02:41:31.167Z,41.29
2022-11-03T02:42:33.692Z,47.57
2022-11-03T02:43:36.053Z,47.27
2022-11-03T02:44:38.419Z,47.07
2022-11-03T02:45:40.887Z,43.83
2022-11-03T02:46:43.454Z,43.42
2022-11-03T02:47:45.969Z,38.19
2022-11-03T02:48:48.441Z,37.44
2022-11-03T02:49:50.941Z,33.32
2022-11-03T02:50:53.566Z,33.11
2022-11-03T02:51:56.048Z,25.20
2022-11-03T02:52:59.044Z,30.76
2022-11-03T02:54:01.511Z,22.64
2022-11-03T02:55:03.973Z,26.23
2022-11-03T02:56:06.846Z,30.37
2022-11-03T02:57:09.306Z,31.91
2022-11-03T02:58:11.728Z,34.18
2022-11-03T02:59:14.192Z,40.54
2022-11-03T03:00:16.652Z,38.43
2022-11-03T03:01:19.212Z,32.44
2022-11-03T03:02:22.044Z,41.23
2022-11-03T03:03:24.722Z,44.70
2022-11-03T03:04:27.171Z,39.77
2022-11-03T03:05:29.645Z,43.42
2022-11-03T03:06:32.364Z,41.33
2022-11-03T03:07:34.998Z,65.09
2022-11-03T03:08:37.513Z,60.97
2022-11-03T03:09:39.996Z,80.23
2022-11-03T03:10:42.769Z,69.59
2022-11-03T03:11:45.251Z,63.31
2022-11-03T03:12:47.714Z,69.59
2022-11-03T03:13:50.223Z,61.45
2022-11-03T03:14:52.592Z,52.39
2022-11-03T03:15:55.062Z,58.52
2022-11-03T03:16:57.541Z,57.85
2022-11-03T03:18:00.013Z,54.95
2022-11-03T03:19:02.513Z,48.11
2022-11-03T03:20:05.223Z,33.96
2022-11-03T03:21:07.691Z,42.96
2022-11-03T03:22:10.168Z,33.94
2022-11-03T03:23:12.902Z,46.16
2022-11-03T03:24:15.975Z,36.80
2022-11-03T03:25:18.441Z,40.10
2022-11-03T03:26:21.218Z,42.61
2022-11-03T03:27:23.691Z,55.33
2022-11-03T03:28:26.171Z,38.99
2022-11-03T03:29:28.687Z,40.76
2022-11-03T03:30:31.267Z,47.85
2022-11-03T03:31:33.743Z,59.37
2022-11-03T03:32:36.205Z,66.31
2022-11-03T03:33:40.743Z,58.75
2022-11-03T03:34:43.017Z,43.49
2022-11-03T03:35:45.473Z,66.01
2022-11-03T03:36:48.243Z,48.89
2022-11-03T03:37:50.711Z,74.13
2022-11-03T03:38:53.182Z,65.27
2022-11-03T03:39:55.689Z,69.38
2022-11-03T03:40:58.360Z,53.35
2022-11-03T03:42:00.741Z,36.62
2022-11-03T03:43:03.206Z,37.33
2022-11-03T03:44:05.711Z,34.67
2022-11-03T03:45:08.210Z,30.96
2022-11-03T03:46:10.987Z,30.21
2022-11-03T03:47:13.363Z,27.65
2022-11-03T03:48:15.824Z,38.93
2022-11-03T03:49:18.292Z,34.13
2022-11-03T03:50:21.116Z,44.18
2022-11-03T03:51:23.584Z,60.49
2022-11-03T03:52:26.069Z,57.54
2022-11-03T03:53:28.532Z,50.63
2022-11-03T03:54:31.018Z,26.51
2022-11-03T03:55:33.669Z,26.74
2022-11-03T03:56:36.433Z,19.12
2022-11-03T03:57:38.913Z,19.31
2022-11-03T03:58:41.400Z,21.76
2022-11-03T03:59:43.876Z,24.75
2022-11-03T04:00:46.659Z,24.39
2022-11-03T04:01:49.342Z,21.49
2022-11-03T04:02:51.934Z,15.83
2022-11-03T04:03:54.411Z,13.87
2022-11-03T04:04:56.886Z,20.93
2022-11-03T04:05:59.398Z,22.21
2022-11-03T04:07:02.001Z,22.69
2022-11-03T04:08:04.646Z,17.57
2022-11-03T04:09:07.251Z,22.48
2022-11-03T04:10:10.221Z,18.24
2022-11-03T04:11:12.745Z,38.12
2022-11-03T04:12:15.212Z,27.12
2022-11-03T04:13:17.683Z,16.19
2022-11-03T04:14:20.167Z,17.72
2022-11-03T04:15:22.637Z,15.32
2022-11-03T04:16:25.341Z,18.97
2022-11-03T04:17:27.829Z,18.11
2022-11-03T04:18:30.302Z,18.63
2022-11-03T04:19:32.780Z,20.25
2022-11-03T04:20:35.443Z,16.56
2022-11-03T04:21:37.946Z,20.11
2022-11-03T04:22:40.507Z,21.78
2022-11-03T04:23:42.978Z,15.95
2022-11-03T04:24:45.451Z,19.10
2022-11-03T04:25:47.922Z,18.70
2022-11-03T04:26:50.523Z,21.58
2022-11-03T04:27:52.998Z,24.43
2022-11-03T04:28:55.477Z,18.04
2022-11-03T04:29:57.949Z,18.55
2022-11-03T04:31:00.522Z,17.91
2022-11-03T04:32:03.034Z,19.89
2022-11-03T04:33:05.540Z,14.69
2022-11-03T04:34:08.017Z,15.86
2022-11-03T04:35:10.489Z,14.71
2022-11-03T04:36:14.780Z,20.64
2022-11-03T04:37:17.286Z,19.35
2022-11-03T04:38:19.762Z,14.54
2022-11-03T04:39:22.245Z,19.22
2022-11-03T04:40:24.953Z,19.77
2022-11-03T04:41:27.599Z,19.01
2022-11-03T04:42:30.119Z,25.15
2022-11-03T04:43:32.615Z,28.14
2022-11-03T04:44:35.090Z,29.99
2022-11-03T04:45:37.850Z,28.33
2022-11-03T04:46:40.633Z,26.73
2022-11-03T04:47:43.143Z,31.16
2022-11-03T04:48:45.513Z,25.34
2022-11-03T04:49:47.991Z,36.09
2022-11-03T04:50:50.692Z,29.07
2022-11-03T04:51:53.181Z,30.11
2022-11-03T04:52:55.701Z,26.65
2022-11-03T04:53:58.280Z,33.44
2022-11-03T04:55:00.738Z,40.01
2022-11-03T04:56:07.434Z,27.63
2022-11-03T04:57:07.704Z,26.16
2022-11-03T04:58:10.235Z,24.97
2022-11-03T04:59:12.754Z,26.87
2022-11-03T05:00:15.635Z,27.47
2022-11-03T05:01:23.750Z,27.07
2022-11-03T05:02:23.503Z,22.76
2022-11-03T05:03:25.912Z,21.54
2022-11-03T05:04:28.477Z,21.39
2022-11-03T05:05:30.942Z,19.43
2022-11-03T05:06:33.507Z,22.07
2022-11-03T05:07:36.052Z,22.21
2022-11-03T05:08:38.583Z,19.43
2022-11-03T05:09:42.954Z,16.48
2022-11-03T05:10:45.434Z,23.34
2022-11-03T05:11:47.879Z,22.97
2022-11-03T05:12:50.332Z,20.00
2022-11-03T05:13:52.835Z,31.81
2022-11-03T05:14:58.235Z,25.90
2022-11-03T05:15:59.617Z,41.02
2022-11-03T05:17:02.355Z,41.64
2022-11-03T05:18:04.825Z,32.13
2022-11-03T05:19:07.318Z,40.91
2022-11-03T05:20:10.602Z,33.01
2022-11-03T05:21:13.150Z,37.99
2022-11-03T05:22:15.611Z,37.83
2022-11-03T05:23:17.973Z,33.46
2022-11-03T05:24:20.362Z,39.41
2022-11-03T05:25:22.938Z,34.76
2022-11-03T05:26:25.704Z,35.29
2022-11-03T05:27:28.386Z,37.82
2022-11-03T05:28:30.836Z,34.98
2022-11-03T05:29:33.231Z,32.83
2022-11-03T05:30:35.792Z,36.58
2022-11-03T05:31:38.163Z,37.17
2022-11-03T05:32:40.524Z,31.01
2022-11-03T05:33:42.886Z,42.01
2022-11-03T05:34:45.282Z,28.66
2022-11-03T05:35:47.644Z,29.07
2022-11-03T05:36:50.201Z,37.34
2022-11-03T05:37:52.560Z,20.63
2022-11-03T05:38:54.922Z,28.20
2022-11-03T05:39:57.326Z,28.87
2022-11-03T05:40:59.988Z,28.03
2022-11-03T05:42:02.446Z,20.13
2022-11-03T05:43:09.710Z,23.17
2022-11-03T05:44:09.098Z,26.34
2022-11-03T05:45:11.600Z,30.47
2022-11-03T05:46:14.265Z,24.54
2022-11-03T05:47:16.739Z,22.00
2022-11-03T05:48:19.197Z,18.38
2022-11-03T05:49:21.555Z,18.64
2022-11-03T05:50:24.050Z,15.71
2022-11-03T05:51:26.515Z,17.83
2022-11-03T05:52:28.976Z,18.61
2022-11-03T05:53:31.439Z,23.79
2022-11-03T05:54:33.800Z,16.87
2022-11-03T05:55:36.297Z,15.93
2022-11-03T05:56:38.859Z,16.32
2022-11-03T05:57:41.381Z,17.67
2022-11-03T05:58:43.738Z,24.38
2022-11-03T05:59:46.098Z,21.14
2022-11-03T06:00:49.193Z,25.16
2022-11-03T06:01:52.039Z,26.23
2022-11-03T06:02:54.941Z,15.24
2022-11-03T06:03:57.536Z,18.15
2022-11-03T06:04:59.993Z,15.79
2022-11-03T06:06:02.580Z,13.63
2022-11-03T06:07:04.938Z,15.46
2022-11-03T06:08:07.738Z,15.07
2022-11-03T06:09:10.567Z,16.96
2022-11-03T06:10:13.226Z,21.84
2022-11-03T06:11:15.616Z,14.42
2022-11-03T06:12:18.024Z,19.49
2022-11-03T06:13:20.500Z,20.05
2022-11-03T06:14:24.473Z,17.65
2022-11-03T06:15:27.248Z,23.88
2022-11-03T06:16:29.852Z,14.05
2022-11-03T06:17:32.317Z,17.25
2022-11-03T06:18:34.781Z,18.40
2022-11-03T06:19:37.144Z,15.19
2022-11-03T06:20:39.635Z,18.39
2022-11-03T06:21:44.634Z,19.40
2022-11-03T06:22:46.311Z,23.03
2022-11-03T06:23:48.674Z,29.63
2022-11-03T06:24:51.126Z,28.55
2022-11-03T06:25:53.494Z,39.39
2022-11-03T06:26:55.979Z,44.59
2022-11-03T06:27:58.440Z,39.55
2022-11-03T06:29:01.306Z,53.79
2022-11-03T06:30:03.963Z,46.42
2022-11-03T06:31:06.423Z,49.83
2022-11-03T06:32:08.935Z,52.14
2022-11-03T06:33:11.533Z,41.35
2022-11-03T06:34:14.144Z,44.67
2022-11-03T06:35:16.645Z,34.86
2022-11-03T06:36:19.321Z,34.54
2022-11-03T06:37:21.821Z,40.41
2022-11-03T06:38:24.205Z,34.17
2022-11-03T06:39:26.669Z,33.96
2022-11-03T06:40:29.123Z,26.57
2022-11-03T06:41:31.480Z,21.88
2022-11-03T06:42:33.926Z,18.67
2022-11-03T06:43:36.386Z,23.87
2022-11-03T06:44:38.748Z,19.13
2022-11-03T06:45:41.217Z,23.48
2022-11-03T06:46:43.882Z,23.39
2022-11-03T06:47:46.296Z,23.88
2022-11-03T06:48:48.857Z,16.71
2022-11-03T06:49:51.854Z,20.76
2022-11-03T06:50:54.515Z,23.07
2022-11-03T06:51:56.874Z,20.72
2022-11-03T06:52:59.278Z,29.58
2022-11-03T06:54:01.749Z,25.05
2022-11-03T06:55:04.212Z,22.55
2022-11-03T06:56:06.993Z,21.42
2022-11-03T06:57:09.351Z,22.39
2022-11-03T06:58:11.941Z,20.37
2022-11-03T06:59:14.696Z,18.61
2022-11-03T07:00:33.524Z,21.63
2022-11-03T07:01:21.910Z,21.08
2022-11-03T07:02:24.682Z,19.34
2022-11-03T07:03:27.419Z,18.50
2022-11-03T07:04:29.988Z,21.71
2022-11-03T07:05:32.452Z,21.98
2022-11-03T07:06:34.909Z,26.36
2022-11-03T07:07:37.381Z,21.99
2022-11-03T07:08:39.988Z,22.62
2022-11-03T07:09:42.470Z,27.56
2022-11-03T07:10:44.927Z,30.11
2022-11-03T07:11:47.285Z,21.75
2022-11-03T07:12:49.646Z,24.68
2022-11-03T07:13:52.048Z,21.70
2022-11-03T07:14:54.549Z,24.46
2022-11-03T07:15:56.983Z,33.39
2022-11-03T07:16:59.758Z,26.62
2022-11-03T07:18:02.305Z,24.08
2022-11-03T07:19:04.808Z,21.25
2022-11-03T07:20:08.078Z,16.58
2022-11-03T07:21:10.443Z,26.39
2022-11-03T07:22:12.807Z,18.98
2022-11-03T07:23:15.260Z,23.67
2022-11-03T07:24:17.647Z,22.01
2022-11-03T07:25:20.095Z,25.87
2022-11-03T07:26:22.578Z,21.06
2022-11-03T07:27:25.079Z,22.35
2022-11-03T07:28:27.542Z,22.07
2022-11-03T07:29:29.941Z,29.75
2022-11-03T07:30:32.603Z,20.97
2022-11-03T07:31:34.958Z,22.39
2022-11-03T07:32:37.320Z,42.49
2022-11-03T07:33:39.772Z,28.52
2022-11-03T07:34:42.166Z,24.57
2022-11-03T07:36:13.731Z,27.71
2022-11-03T07:36:54.373Z,29.08
2022-11-03T07:37:53.293Z,29.29
2022-11-03T07:38:55.653Z,27.59
2022-11-03T07:39:58.032Z,25.03
2022-11-03T07:41:00.483Z,26.16
2022-11-03T07:42:02.848Z,27.56
2022-11-03T07:43:05.304Z,31.39
2022-11-03T07:44:07.661Z,24.79
2022-11-03T07:45:10.059Z,29.44
2022-11-03T07:46:13.839Z,29.78
2022-11-03T07:47:16.286Z,32.56
2022-11-03T07:48:18.650Z,26.56
2022-11-03T07:49:21.003Z,27.20
2022-11-03T07:50:23.479Z,31.89
2022-11-03T07:51:25.834Z,28.79
2022-11-03T07:52:28.304Z,26.63
2022-11-03T07:53:30.654Z,27.32
2022-11-03T07:54:33.010Z,26.21
2022-11-03T07:55:35.508Z,28.71
2022-11-03T07:56:38.013Z,27.81
2022-11-03T07:57:41.166Z,33.18
2022-11-03T07:58:43.621Z,28.91
2022-11-03T07:59:45.977Z,32.40
2022-11-03T08:00:48.488Z,24.67
2022-11-03T08:01:51.105Z,32.15
2022-11-03T08:02:53.866Z,35.74
2022-11-03T08:03:56.450Z,37.30
2022-11-03T08:04:58.818Z,32.92
2022-11-03T08:06:03.715Z,38.11
2022-11-03T08:07:05.589Z,34.69
2022-11-03T08:08:08.335Z,37.30
2022-11-03T08:09:11.018Z,37.26
2022-11-03T08:10:13.674Z,41.95
2022-11-03T08:11:16.058Z,32.64
2022-11-03T08:12:18.650Z,44.13
2022-11-03T08:13:21.100Z,34.04
2022-11-03T08:14:23.458Z,40.21
2022-11-03T08:15:25.823Z,33.43
2022-11-03T08:16:28.212Z,34.59
2022-11-03T08:17:30.573Z,32.22
2022-11-03T08:18:32.935Z,30.43
2022-11-03T08:19:35.291Z,27.92
2022-11-03T08:20:37.945Z,28.83
2022-11-03T08:21:40.347Z,31.73
2022-11-03T08:22:49.858Z,30.18
2022-11-03T08:23:47.749Z,31.78
2022-11-03T08:24:50.456Z,27.00
2022-11-03T08:25:52.904Z,30.50
2022-11-03T08:26:55.489Z,35.72
2022-11-03T08:27:57.843Z,29.54
2022-11-03T08:29:00.206Z,35.98
2022-11-03T08:30:02.869Z,27.41
2022-11-03T08:31:09.455Z,24.13
2022-11-03T08:32:09.628Z,30.88
2022-11-03T08:33:12.093Z,27.81
2022-11-03T08:34:14.442Z,28.21
2022-11-03T08:35:16.803Z,26.16
2022-11-03T08:36:19.563Z,31.71
2022-11-03T08:37:21.949Z,34.08
2022-11-03T08:38:24.312Z,26.28
2022-11-03T08:39:26.678Z,25.53
2022-11-03T08:40:29.231Z,26.51
2022-11-03T08:41:31.603Z,27.88
2022-11-03T08:42:34.102Z,27.37
2022-11-03T08:43:36.452Z,25.93
2022-11-03T08:44:38.810Z,33.73
2022-11-03T08:45:41.173Z,32.79
2022-11-03T08:46:43.724Z,30.97
2022-11-03T08:47:46.113Z,29.05
2022-11-03T08:48:48.473Z,32.69
2022-11-03T08:49:50.824Z,30.47
2022-11-03T08:50:53.475Z,30.38
2022-11-03T08:51:56.146Z,41.08
2022-11-03T08:52:58.630Z,34.86
2022-11-03T08:54:00.994Z,37.95
2022-11-03T08:55:03.494Z,45.39
2022-11-03T08:56:10.331Z,34.71
2022-11-03T08:57:10.529Z,38.96
2022-11-03T08:58:12.927Z,37.46
2022-11-03T08:59:15.287Z,39.95
2022-11-03T09:00:17.835Z,31.92
2022-11-03T09:01:21.219Z,33.50
2022-11-03T09:02:23.853Z,39.88
2022-11-03T09:03:26.506Z,37.63
2022-11-03T09:04:29.156Z,27.47
2022-11-03T09:05:31.514Z,35.71
2022-11-03T09:06:34.188Z,38.11
2022-11-03T09:10:49.798Z,39.94
2022-11-03T09:11:52.243Z,43.57
2022-11-03T09:12:54.600Z,45.40
2022-11-03T09:13:57.008Z,43.99
2022-11-03T09:14:59.361Z,34.26
2022-11-03T09:16:02.547Z,43.09
2022-11-03T09:17:04.933Z,40.37
2022-11-03T09:18:07.768Z,37.97
2022-11-03T09:19:10.580Z,39.89
2022-11-03T09:20:13.135Z,39.93
2022-11-03T09:21:15.514Z,41.77
2022-11-03T09:22:17.941Z,41.11
2022-11-03T09:23:20.304Z,42.35
2022-11-03T09:24:22.687Z,40.66
2022-11-03T09:25:25.142Z,40.59
2022-11-03T09:26:27.595Z,36.09
2022-11-03T09:27:29.958Z,40.85
2022-11-03T09:28:32.310Z,35.75
2022-11-03T09:29:58.636Z,39.07
2022-11-03T09:30:39.260Z,43.55
2022-11-03T09:31:41.615Z,38.39
2022-11-03T09:32:43.978Z,38.73
2022-11-03T09:33:46.335Z,28.85
2022-11-03T09:34:48.733Z,32.17
2022-11-03T09:35:51.186Z,27.64
2022-11-03T09:36:53.746Z,38.58
2022-11-03T09:37:56.213Z,33.25
2022-11-03T09:38:59.062Z,31.26
2022-11-03T09:40:01.445Z,33.97
2022-11-03T09:41:09.625Z,28.33
2022-11-03T09:42:08.071Z,31.90
2022-11-03T09:43:10.761Z,27.19
2022-11-03T09:44:13.308Z,25.46
2022-11-03T09:45:15.803Z,32.49
2022-11-03T09:46:18.982Z,37.63
2022-11-03T09:47:21.356Z,34.30
2022-11-03T09:48:23.717Z,37.83
2022-11-03T09:49:26.082Z,31.10
2022-11-03T09:50:28.591Z,34.44
2022-11-03T09:51:31.047Z,41.99
2022-11-03T09:52:33.510Z,33.51
2022-11-03T09:53:35.872Z,40.70
2022-11-03T09:54:38.346Z,30.93
2022-11-03T09:55:40.840Z,29.45
2022-11-03T09:56:43.503Z,24.61
2022-11-03T09:57:45.860Z,31.96
2022-11-03T09:58:53.022Z,45.38
2022-11-03T09:59:52.507Z,37.38
2022-11-03T10:00:55.142Z,38.59
2022-11-03T10:01:57.832Z,33.56
2022-11-03T10:03:00.417Z,40.69
2022-11-03T10:04:02.878Z,26.05
2022-11-03T10:05:10.723Z,37.80
2022-11-03T10:06:12.800Z,30.35
2022-11-03T10:07:14.125Z,32.45
2022-11-03T10:08:18.491Z,25.34
2022-11-03T10:09:20.778Z,29.83
2022-11-03T10:10:23.481Z,32.25
2022-11-03T10:11:25.949Z,36.83
2022-11-03T10:12:28.312Z,29.55
2022-11-03T10:13:30.776Z,36.39
2022-11-03T10:14:33.236Z,37.43
2022-11-03T10:15:35.701Z,48.98
2022-11-03T10:16:38.321Z,34.85
2022-11-03T10:17:40.759Z,34.43
2022-11-03T10:18:43.122Z,32.16
2022-11-03T10:19:45.480Z,34.87
2022-11-03T10:20:47.940Z,38.59
2022-11-03T10:21:50.347Z,36.72
2022-11-03T10:22:52.732Z,44.71
2022-11-03T10:23:55.192Z,37.78
2022-11-03T10:24:57.662Z,39.15
2022-11-03T10:26:00.121Z,31.19
2022-11-03T10:27:02.770Z,39.50
2022-11-03T10:28:06.614Z,33.92
2022-11-03T10:29:09.876Z,48.13
2022-11-03T10:30:13.912Z,43.12
2022-11-03T10:31:16.375Z,40.01
2022-11-03T10:32:18.770Z,41.79
2022-11-03T10:33:21.440Z,46.59
2022-11-03T10:34:23.920Z,42.83
2022-11-03T10:35:26.376Z,47.59
2022-11-03T10:36:29.235Z,46.68
2022-11-03T10:37:31.728Z,44.63
2022-11-03T10:38:34.082Z,43.68
2022-11-03T10:39:36.448Z,50.17
2022-11-03T10:40:47.872Z,42.18
2022-11-03T10:41:43.605Z,43.38
2022-11-03T10:42:46.102Z,43.89
2022-11-03T10:43:48.460Z,31.67
2022-11-03T10:44:50.821Z,29.07
2022-11-03T10:45:53.283Z,29.24
2022-11-03T10:46:55.949Z,33.67
2022-11-03T10:48:00.702Z,18.35
2022-11-03T10:49:02.676Z,24.86
2022-11-03T10:50:05.482Z,34.56
2022-11-03T10:51:07.845Z,26.17
2022-11-03T10:52:10.206Z,26.84
2022-11-03T10:53:12.735Z,36.15
2022-11-03T10:54:15.266Z,35.49
2022-11-03T10:55:20.593Z,34.77
2022-11-03T10:56:22.111Z,37.51
2022-11-03T10:57:24.482Z,34.33
2022-11-03T10:58:26.981Z,34.09
2022-11-03T10:59:29.439Z,37.05
2022-11-03T11:00:31.907Z,29.29
2022-11-03T11:01:34.501Z,35.81
2022-11-03T11:02:37.290Z,30.41
2022-11-03T11:03:39.943Z,26.69
2022-11-03T11:04:42.472Z,30.89
2022-11-03T11:05:44.901Z,26.69
2022-11-03T11:06:47.869Z,30.61
2022-11-03T11:07:50.267Z,30.86
2022-11-03T11:08:56.004Z,32.51
2022-11-03T11:09:57.000Z,34.51
2022-11-03T11:10:59.461Z,35.65
2022-11-03T11:12:01.920Z,33.19
2022-11-03T11:13:04.646Z,31.65
2022-11-03T11:14:07.507Z,32.66
2022-11-03T11:15:09.869Z,33.96
2022-11-03T11:16:13.745Z,42.91
2022-11-03T11:17:16.113Z,29.51
2022-11-03T11:18:18.570Z,25.79
2022-11-03T11:19:20.963Z,30.73
2022-11-03T11:20:23.553Z,35.12
2022-11-03T11:21:25.982Z,41.60
2022-11-03T11:22:28.345Z,28.52
2022-11-03T11:23:30.733Z,28.97
2022-11-03T11:24:33.213Z,28.89
2022-11-03T11:25:35.578Z,24.22
2022-11-03T11:26:38.238Z,31.51
2022-11-03T11:27:40.600Z,27.56
2022-11-03T11:28:42.966Z,24.91
2022-11-03T11:29:45.453Z,24.23
2022-11-03T11:30:48.010Z,27.38
2022-11-03T11:31:50.469Z,31.25
2022-11-03T11:32:52.833Z,36.15
2022-11-03T11:33:55.296Z,26.73
2022-11-03T11:34:57.696Z,24.26
2022-11-03T11:36:00.095Z,26.02
2022-11-03T11:37:02.530Z,25.59
2022-11-03T11:38:04.895Z,26.39
2022-11-03T11:39:07.256Z,25.16
2022-11-03T11:40:10.264Z,26.03
2022-11-03T11:41:12.628Z,27.53
2022-11-03T11:42:15.177Z,34.32
2022-11-03T11:43:17.953Z,30.04
2022-11-03T11:44:20.328Z,28.10
2022-11-03T11:45:22.834Z,26.25
2022-11-03T11:46:25.293Z,27.45
2022-11-03T11:47:27.663Z,29.20
2022-11-03T11:48:30.125Z,51.89
2022-11-03T11:49:32.483Z,35.51
2022-11-03T11:50:35.076Z,41.40
2022-11-03T11:51:37.447Z,31.97
2022-11-03T11:52:39.908Z,29.23
2022-11-03T11:53:42.370Z,30.78
2022-11-03T11:54:44.733Z,29.89
2022-11-03T11:55:47.221Z,38.65
2022-11-03T11:56:50.159Z,33.44
2022-11-03T11:57:52.611Z,37.25
2022-11-03T11:58:54.972Z,40.33
2022-11-03T11:59:57.447Z,34.51
2022-11-03T12:00:59.976Z,28.98
2022-11-03T12:02:02.483Z,33.57
2022-11-03T12:03:05.255Z,40.38
2022-11-03T12:04:08.391Z,32.76
2022-11-03T12:05:11.239Z,32.26
2022-11-03T12:06:14.533Z,31.16
2022-11-03T12:07:16.891Z,33.77
2022-11-03T12:08:19.249Z,29.26
2022-11-03T12:09:21.602Z,30.23
2022-11-03T12:10:24.256Z,27.82
2022-11-03T12:11:26.678Z,31.14
2022-11-03T12:12:29.884Z,33.62
2022-11-03T12:13:32.348Z,29.31
2022-11-03T12:14:34.794Z,30.93
2022-11-03T12:15:37.162Z,28.91
2022-11-03T12:16:39.803Z,27.97
2022-11-03T12:17:42.165Z,26.25
2022-11-03T12:18:50.261Z,34.15
2022-11-03T12:19:48.807Z,38.92
2022-11-03T12:20:51.262Z,34.69
2022-11-03T12:21:53.658Z,32.63
2022-11-03T12:22:56.019Z,29.72
2022-11-03T12:23:58.466Z,35.00
2022-11-03T12:25:00.833Z,35.72
2022-11-03T12:26:03.385Z,24.55
2022-11-03T12:27:05.866Z,29.29
2022-11-03T12:28:08.733Z,31.39
2022-11-03T12:29:11.713Z,29.67
2022-11-03T12:30:14.069Z,26.31
2022-11-03T12:31:16.437Z,27.57
2022-11-03T12:32:32.686Z,27.16
2022-11-03T12:33:23.272Z,29.60
2022-11-03T12:34:25.632Z,25.69
2022-11-03T12:35:27.984Z,24.90
2022-11-03T12:36:30.645Z,27.51
2022-11-03T12:37:33.161Z,27.26
2022-11-03T12:38:35.593Z,32.15
2022-11-03T12:39:37.951Z,30.01
2022-11-03T12:40:40.405Z,31.97
2022-11-03T12:41:42.864Z,35.22
2022-11-03T12:42:45.264Z,33.41
2022-11-03T12:43:47.657Z,26.98
2022-11-03T12:44:50.182Z,26.49
2022-11-03T12:45:52.544Z,29.85
2022-11-03T12:46:55.274Z,29.52
2022-11-03T12:47:57.669Z,28.98
2022-11-03T12:49:00.035Z,30.15
2022-11-03T12:50:02.579Z,26.20
2022-11-03T12:51:04.936Z,31.08
2022-11-03T12:52:08.238Z,34.31
2022-11-03T12:53:11.316Z,31.46
2022-11-03T12:54:13.669Z,28.19
2022-11-03T12:55:16.093Z,38.87
2022-11-03T12:56:18.901Z,29.60
2022-11-03T12:57:21.354Z,33.98
2022-11-03T12:58:23.867Z,34.29
2022-11-03T12:59:26.221Z,39.24
2022-11-03T13:00:28.674Z,33.85
2022-11-03T13:01:31.149Z,30.32
2022-11-03T13:02:33.846Z,39.56
2022-11-03T13:03:36.396Z,32.25
2022-11-03T13:04:38.750Z,32.70
2022-11-03T13:05:41.111Z,27.89
2022-11-03T13:06:43.462Z,28.59
2022-11-03T13:07:45.823Z,24.63
2022-11-03T13:08:50.695Z,29.72
2022-11-03T13:09:52.479Z,21.22
2022-11-03T13:10:55.031Z,30.29
2022-11-03T13:11:57.521Z,42.26
2022-11-03T13:12:59.971Z,25.55
2022-11-03T13:14:02.357Z,30.77
2022-11-03T13:15:04.814Z,27.24
2022-11-03T13:16:07.769Z,42.36
2022-11-03T13:17:10.133Z,41.04
2022-11-03T13:18:14.022Z,34.09
2022-11-03T13:19:16.906Z,39.05
2022-11-03T13:20:19.376Z,41.05
2022-11-03T13:21:21.828Z,37.97
2022-11-03T13:22:24.279Z,50.95
2022-11-03T13:23:26.647Z,31.99
2022-11-03T13:24:29.032Z,43.25
2022-11-03T13:25:31.527Z,34.72
2022-11-03T13:26:34.140Z,28.16
2022-11-03T13:27:36.597Z,34.55
2022-11-03T13:28:38.959Z,29.09
2022-11-03T13:29:41.338Z,30.19